createdAt,value
2023-02-11T00:00:49.859Z,99727.97
2023-02-11T00:03:18.003Z,99737.78
2023-02-11T00:05:45.650Z,99724.00
2023-02-11T00:08:17.015Z,99731.41
2023-02-11T00:10:46.427Z,99717.81
2023-02-11T00:13:14.091Z,99710.34
2023-02-11T00:15:41.833Z,99705.00
2023-02-11T00:18:09.519Z,99700.28
2023-02-11T00:20:39.655Z,99698.22
2023-02-11T00:23:07.330Z,99698.00
2023-02-11T00:25:37.231Z,99699.19
2023-02-11T00:28:06.219Z,99692.94
2023-02-11T00:30:34.204Z,99687.09
2023-02-11T00:33:01.734Z,99686.28
2023-02-11T00:35:29.646Z,99692.41
2023-02-11T00:37:57.712Z,99693.81
2023-02-11T00:40:25.453Z,99693.56
2023-02-11T00:42:52.896Z,99697.34
2023-02-11T00:45:21.890Z,99692.47
2023-02-11T00:47:49.664Z,99692.69
2023-02-11T00:50:17.333Z,99693.47
2023-02-11T00:52:44.943Z,99691.53
2023-02-11T00:55:12.603Z,99707.63
2023-02-11T00:57:40.231Z,99698.88
2023-02-11T01:00:08.835Z,99708.91
2023-02-11T01:02:37.811Z,99698.22
2023-02-11T01:05:06.271Z,99697.50
2023-02-11T01:07:33.934Z,99700.63
2023-02-11T01:10:01.818Z,99690.22
2023-02-11T01:12:29.472Z,99695.41
2023-02-11T01:14:57.140Z,99689.22
2023-02-11T01:17:24.928Z,99689.09
2023-02-11T01:19:53.925Z,99687.97
2023-02-11T01:22:21.591Z,99674.72
2023-02-11T01:24:49.257Z,99684.13
2023-02-11T01:27:16.898Z,99674.56
2023-02-11T01:29:44.578Z,99671.53
2023-02-11T01:32:12.213Z,99667.53
2023-02-11T01:34:39.886Z,99671.19
2023-02-11T01:37:08.835Z,99671.03
2023-02-11T01:39:37.130Z,99678.16
2023-02-11T01:42:05.014Z,99669.09
2023-02-11T01:44:35.796Z,99663.84
2023-02-11T01:47:04.800Z,99659.13
2023-02-11T01:49:36.396Z,99653.31
2023-02-11T01:52:09.662Z,99657.41
2023-02-11T01:54:58.933Z,99655.47
2023-02-11T01:57:30.023Z,99650.06
2023-02-11T02:00:04.459Z,99651.34
2023-02-11T02:02:37.808Z,99645.41
2023-02-11T02:05:11.036Z,99635.91
2023-02-11T02:07:46.814Z,99635.13
2023-02-11T02:10:18.620Z,99630.72
2023-02-11T02:12:46.315Z,99630.09
2023-02-11T02:15:27.458Z,99630.19
2023-02-11T02:18:30.842Z,99626.06
2023-02-11T02:21:45.152Z,99627.47
2023-02-11T02:24:39.813Z,99625.91
2023-02-11T02:27:27.799Z,99612.44
2023-02-11T02:30:15.834Z,99614.63
2023-02-11T02:32:50.728Z,99603.59
2023-02-11T02:35:30.555Z,99595.47
2023-02-11T02:38:04.291Z,99584.44
2023-02-11T02:40:37.806Z,99582.88
2023-02-11T02:43:06.127Z,99581.16
2023-02-11T02:45:34.269Z,99591.88
2023-02-11T02:48:03.228Z,99589.81
2023-02-11T02:50:34.721Z,99598.13
2023-02-11T02:53:18.815Z,99600.13
2023-02-11T02:56:04.219Z,99604.06
2023-02-11T02:58:54.370Z,99607.00
2023-02-11T03:01:33.181Z,99604.50
2023-02-11T03:04:13.281Z,99605.31
2023-02-11T03:06:49.407Z,99594.41
2023-02-11T03:09:23.088Z,99595.25
2023-02-11T03:11:50.994Z,99588.75
2023-02-11T03:14:21.016Z,99599.75
2023-02-11T03:16:50.817Z,99600.97
2023-02-11T03:19:22.379Z,99597.88
2023-02-11T03:21:52.561Z,99599.53
2023-02-11T03:24:26.473Z,99592.84
2023-02-11T03:26:56.076Z,99600.13
2023-02-11T03:29:35.105Z,99602.28
2023-02-11T03:32:07.876Z,99604.41
2023-02-11T03:34:43.115Z,99602.53
2023-02-11T03:37:15.107Z,99603.69
2023-02-11T03:39:47.836Z,99604.75
2023-02-11T03:42:16.926Z,99601.66
2023-02-11T03:44:50.342Z,99598.34
2023-02-11T03:47:22.279Z,99594.16
2023-02-11T03:49:54.499Z,99583.84
2023-02-11T03:52:25.258Z,99578.31
2023-02-11T03:54:57.148Z,99580.47
2023-02-11T03:57:25.037Z,99582.94
2023-02-11T03:59:55.287Z,99590.00
2023-02-11T04:02:24.826Z,99589.75
2023-02-11T04:04:53.822Z,99587.72
2023-02-11T04:07:21.650Z,99581.34
2023-02-11T04:09:49.371Z,99577.78
2023-02-11T04:12:16.978Z,99568.97
2023-02-11T04:14:44.644Z,99565.13
2023-02-11T04:17:12.985Z,99558.16
2023-02-11T04:19:41.074Z,99559.69
2023-02-11T04:22:10.140Z,99556.13
2023-02-11T04:24:37.817Z,99541.41
2023-02-11T04:27:05.644Z,99535.97
2023-02-11T04:29:33.377Z,99534.19
2023-02-11T04:32:01.084Z,99543.47
2023-02-11T04:34:28.895Z,99540.91
2023-02-11T04:36:56.550Z,99520.44
2023-02-11T04:39:25.659Z,99511.16
2023-02-11T04:41:53.273Z,99505.72
2023-02-11T04:44:20.957Z,99514.31
2023-02-11T04:46:48.592Z,99519.59
2023-02-11T04:49:17.214Z,99527.31
2023-02-11T04:51:47.600Z,99501.56
2023-02-11T04:54:16.732Z,99497.47
2023-02-11T04:56:45.726Z,99504.44
2023-02-11T04:59:13.696Z,99508.69
2023-02-11T05:01:41.589Z,99502.41
2023-02-11T05:04:09.400Z,99502.16
2023-02-11T05:06:39.215Z,99503.16
2023-02-11T05:09:06.868Z,99496.72
2023-02-11T05:11:34.545Z,99518.72
2023-02-11T05:14:03.539Z,99527.13
2023-02-11T05:16:31.178Z,99532.50
2023-02-11T05:18:58.871Z,99526.38
2023-02-11T05:21:26.940Z,99531.53
2023-02-11T05:23:54.609Z,99527.47
2023-02-11T05:26:22.274Z,99526.00
2023-02-11T05:28:49.984Z,99511.41
2023-02-11T05:31:19.098Z,99511.50
2023-02-11T05:33:46.743Z,99509.34
2023-02-11T05:36:14.607Z,99512.09
2023-02-11T05:38:43.325Z,99501.53
2023-02-11T05:41:14.485Z,99497.59
2023-02-11T05:43:42.132Z,99497.53
2023-02-11T05:46:09.865Z,99494.03
2023-02-11T05:48:38.960Z,99490.13
2023-02-11T05:51:06.777Z,99478.03
2023-02-11T05:53:34.457Z,99478.03
2023-02-11T05:56:02.794Z,99471.72
2023-02-11T05:58:30.547Z,99491.56
2023-02-11T06:00:58.150Z,99490.41
2023-02-11T06:03:25.950Z,99509.19
2023-02-11T06:05:55.010Z,99511.53
2023-02-11T06:08:22.620Z,99514.44
2023-02-11T06:10:50.227Z,99516.25
2023-02-11T06:13:18.576Z,99491.19
2023-02-11T06:15:46.736Z,99499.34
2023-02-11T06:18:14.447Z,99491.25
2023-02-11T06:20:42.024Z,99496.28
2023-02-11T06:23:11.013Z,99494.09
2023-02-11T06:25:38.636Z,99494.09
2023-02-11T06:28:06.284Z,99487.41
2023-02-11T06:30:33.951Z,99484.50
2023-02-11T06:33:01.551Z,99480.03
2023-02-11T06:35:29.456Z,99479.03
2023-02-11T06:37:57.303Z,99488.13
2023-02-11T06:40:26.333Z,99491.19
2023-02-11T06:42:54.294Z,99488.63
2023-02-11T06:45:21.958Z,99484.56
2023-02-11T06:47:53.131Z,99481.94
2023-02-11T06:50:20.886Z,99480.16
2023-02-11T06:52:48.633Z,99490.53
2023-02-11T06:55:16.316Z,99486.75
2023-02-11T06:57:45.332Z,99496.72
2023-02-11T07:00:14.536Z,99500.13
2023-02-11T07:02:42.076Z,99494.75
2023-02-11T07:05:12.935Z,99504.56
2023-02-11T07:07:40.597Z,99512.09
2023-02-11T07:10:08.918Z,99520.88
2023-02-11T07:12:36.505Z,99522.50
2023-02-11T07:15:06.002Z,99524.09
2023-02-11T07:17:35.321Z,99522.91
2023-02-11T07:20:03.421Z,99522.63
2023-02-11T07:22:31.035Z,99523.13
2023-02-11T07:24:58.704Z,99532.81
2023-02-11T07:27:26.383Z,99523.59
2023-02-11T07:29:54.037Z,99517.75
2023-02-11T07:32:23.007Z,99507.38
2023-02-11T07:34:50.641Z,99508.44
2023-02-11T07:37:18.314Z,99505.59
2023-02-11T07:39:45.918Z,99507.03
2023-02-11T07:42:13.781Z,99506.38
2023-02-11T07:44:41.406Z,99515.03
2023-02-11T07:47:09.146Z,99514.50
2023-02-11T07:49:38.111Z,99518.97
2023-02-11T07:52:05.918Z,99525.88
2023-02-11T07:54:33.555Z,99532.56
2023-02-11T07:57:01.145Z,99535.75
2023-02-11T07:59:28.863Z,99536.94
2023-02-11T08:01:56.671Z,99544.06
2023-02-11T08:04:24.306Z,99550.69
2023-02-11T08:06:57.919Z,99548.81
2023-02-11T08:09:26.688Z,99547.28
2023-02-11T08:11:54.357Z,99554.00
2023-02-11T08:14:22.043Z,99563.44
2023-02-11T08:16:49.654Z,99562.75
2023-02-11T08:19:18.224Z,99552.38
2023-02-11T08:21:45.957Z,99539.16
2023-02-11T08:24:14.981Z,99537.00
2023-02-11T08:26:42.780Z,99530.41
2023-02-11T08:29:14.072Z,99529.56
2023-02-11T08:31:44.275Z,99524.69
2023-02-11T08:34:14.252Z,99518.91
2023-02-11T08:36:44.720Z,99530.97
2023-02-11T08:39:19.650Z,99523.75
2023-02-11T08:41:48.788Z,99529.03
2023-02-11T08:44:16.881Z,99529.44
2023-02-11T08:46:44.576Z,99536.72
2023-02-11T08:49:12.248Z,99536.69
2023-02-11T08:51:39.931Z,99523.44
2023-02-11T08:54:09.787Z,99525.06
2023-02-11T08:56:40.156Z,99528.41
2023-02-11T08:59:09.132Z,99537.84
2023-02-11T09:01:36.850Z,99542.50
2023-02-11T09:04:04.847Z,99538.22
2023-02-11T09:06:33.242Z,99540.50
2023-02-11T09:09:00.844Z,99540.31
2023-02-11T09:11:30.993Z,99539.16
2023-02-11T09:14:00.406Z,99539.53
2023-02-11T09:16:30.569Z,99540.22
2023-02-11T09:18:59.823Z,99522.28
2023-02-11T09:21:28.297Z,99518.91
2023-02-11T09:23:55.962Z,99507.69
2023-02-11T09:26:25.769Z,99505.81
2023-02-11T09:28:53.603Z,99502.47
2023-02-11T09:31:25.158Z,99507.84
2023-02-11T09:33:55.303Z,99507.50
2023-02-11T09:36:25.632Z,99509.13
2023-02-11T09:38:54.593Z,99512.09
2023-02-11T09:41:34.098Z,99504.78
2023-02-11T09:44:04.829Z,99510.19
2023-02-11T09:46:37.506Z,99502.16
2023-02-11T09:49:07.034Z,99509.53
2023-02-11T09:51:42.120Z,99508.00
2023-02-11T09:54:16.667Z,99514.44
2023-02-11T09:56:44.307Z,99519.44
2023-02-11T09:59:16.156Z,99513.88
2023-02-11T10:01:50.395Z,99524.41
2023-02-11T10:04:33.327Z,99525.56
2023-02-11T10:07:12.993Z,99529.56
2023-02-11T10:09:55.919Z,99535.31
2023-02-11T10:12:36.046Z,99533.88
2023-02-11T10:15:19.876Z,99534.63
2023-02-11T10:18:03.194Z,99539.06
2023-02-11T10:20:34.651Z,99542.56
2023-02-11T10:23:09.539Z,99541.19
2023-02-11T10:25:39.312Z,99534.59
2023-02-11T10:28:14.233Z,99545.03
2023-02-11T10:30:47.586Z,99544.41
2023-02-11T10:33:24.372Z,99539.84
2023-02-11T10:35:52.032Z,99539.91
2023-02-11T10:38:19.732Z,99535.81
2023-02-11T10:40:47.324Z,99526.31
2023-02-11T10:43:17.598Z,99516.28
2023-02-11T10:45:47.269Z,99533.38
2023-02-11T10:48:39.793Z,99542.16
2023-02-11T10:51:19.215Z,99533.75
2023-02-11T10:53:47.837Z,99530.25
2023-02-11T10:56:22.737Z,99529.66
2023-02-11T10:58:59.296Z,99541.09
2023-02-11T11:01:41.583Z,99536.78
2023-02-11T11:04:33.697Z,99522.72
2023-02-11T11:07:12.987Z,99525.78
2023-02-11T11:09:47.475Z,99532.66
2023-02-11T11:12:26.848Z,99534.47
2023-02-11T11:14:59.309Z,99536.03
2023-02-11T11:17:29.057Z,99530.59
2023-02-11T11:20:15.873Z,99532.66
2023-02-11T11:22:45.426Z,99542.56
2023-02-11T11:25:23.528Z,99533.88
2023-02-11T11:27:51.871Z,99527.34
2023-02-11T11:30:20.167Z,99537.31
2023-02-11T11:32:48.082Z,99533.69
2023-02-11T11:35:27.247Z,99532.34
2023-02-11T11:37:59.959Z,99534.53
2023-02-11T11:40:31.397Z,99545.06
2023-02-11T11:43:20.187Z,99542.56
2023-02-11T11:45:57.066Z,99534.59
2023-02-11T11:48:29.071Z,99538.69
2023-02-11T11:51:01.141Z,99534.06
2023-02-11T11:53:38.570Z,99534.13
2023-02-11T11:56:07.886Z,99531.13
2023-02-11T11:58:36.086Z,99524.81
2023-02-11T12:01:17.563Z,99535.59
2023-02-11T12:04:30.041Z,99528.09
2023-02-11T12:07:11.878Z,99521.84
2023-02-11T12:09:52.083Z,99532.94
2023-02-11T12:12:32.174Z,99536.25
2023-02-11T12:15:12.910Z,99527.50
2023-02-11T12:17:57.026Z,99523.72
2023-02-11T12:20:33.935Z,99526.91
2023-02-11T12:23:20.674Z,99525.94
2023-02-11T12:25:55.402Z,99511.72
2023-02-11T12:28:37.134Z,99527.78
2023-02-11T12:31:19.226Z,99527.19
2023-02-11T12:34:11.016Z,99534.53
2023-02-11T12:36:54.189Z,99537.03
2023-02-11T12:39:33.997Z,99525.22
2023-02-11T12:42:56.668Z,99528.53
2023-02-11T12:45:39.644Z,99520.06
2023-02-11T12:48:22.524Z,99509.47
2023-02-11T12:50:57.103Z,99512.59
2023-02-11T12:53:46.280Z,99502.56
2023-02-11T12:56:20.507Z,99494.81
2023-02-11T12:58:51.367Z,99508.72
2023-02-11T13:01:23.393Z,99496.97
2023-02-11T13:03:56.291Z,99496.63
2023-02-11T13:06:29.861Z,99495.28
2023-02-11T13:09:02.599Z,99493.00
2023-02-11T13:11:38.435Z,99485.75
2023-02-11T13:14:13.533Z,99492.44
2023-02-11T13:16:42.156Z,99469.78
2023-02-11T13:19:21.370Z,99477.41
2023-02-11T13:22:03.687Z,99479.72
2023-02-11T13:24:42.166Z,99485.63
2023-02-11T13:27:23.843Z,99474.00
2023-02-11T13:30:22.276Z,99479.31
2023-02-11T13:33:42.966Z,99480.69
2023-02-11T13:36:17.537Z,99474.25
2023-02-11T13:39:01.341Z,99480.25
2023-02-11T13:41:32.299Z,99479.31
2023-02-11T13:44:03.847Z,99482.34
2023-02-11T13:46:50.645Z,99488.75
2023-02-11T13:49:24.322Z,99486.59
2023-02-11T13:51:53.372Z,99496.00
2023-02-11T13:54:29.227Z,99493.81
2023-02-11T13:57:32.435Z,99497.44
2023-02-11T14:00:02.843Z,99495.09
2023-02-11T14:02:50.800Z,99489.84
2023-02-11T14:05:49.424Z,99493.81
2023-02-11T14:08:39.392Z,99500.69
2023-02-11T14:11:12.140Z,99503.00
2023-02-11T14:14:17.048Z,99500.44
2023-02-11T14:17:24.127Z,99494.56
2023-02-11T14:19:53.269Z,99492.25
2023-02-11T14:22:25.874Z,99499.09
2023-02-11T14:24:56.326Z,99495.44
2023-02-11T14:27:31.439Z,99490.44
2023-02-11T14:30:14.871Z,99494.13
2023-02-11T14:32:52.619Z,99493.31
2023-02-11T14:35:30.045Z,99497.25
2023-02-11T14:38:06.781Z,99488.13
2023-02-11T14:40:39.678Z,99492.72
2023-02-11T14:43:14.391Z,99485.34
2023-02-11T14:45:46.186Z,99492.09
2023-02-11T14:48:17.164Z,99493.91
2023-02-11T14:50:49.979Z,99483.78
2023-02-11T14:53:21.762Z,99500.44
2023-02-11T14:55:52.345Z,99491.38
2023-02-11T14:58:22.238Z,99488.25
2023-02-11T15:01:01.037Z,99489.56
2023-02-11T15:03:33.795Z,99479.78
2023-02-11T15:06:06.186Z,99485.91
2023-02-11T15:08:38.168Z,99484.13
2023-02-11T15:11:12.901Z,99487.13
2023-02-11T15:13:47.294Z,99507.91
2023-02-11T15:16:18.421Z,99495.84
2023-02-11T15:18:48.934Z,99502.22
2023-02-11T15:21:23.985Z,99506.06
2023-02-11T15:24:00.723Z,99506.31
2023-02-11T15:26:29.205Z,99502.09
2023-02-11T15:28:56.994Z,99501.50
2023-02-11T15:31:26.729Z,99502.56
2023-02-11T15:33:55.226Z,99501.56
2023-02-11T15:36:28.496Z,99490.97
2023-02-11T15:39:17.290Z,99500.03
2023-02-11T15:41:45.276Z,99505.34
2023-02-11T15:44:28.420Z,99503.66
2023-02-11T15:46:56.242Z,99501.75
2023-02-11T15:49:25.148Z,99498.34
2023-02-11T15:51:54.938Z,99501.88
2023-02-11T15:54:26.635Z,99494.94
2023-02-11T15:56:59.841Z,99496.75
2023-02-11T15:59:30.934Z,99506.31
2023-02-11T16:02:06.445Z,99508.00
2023-02-11T16:04:34.099Z,99514.44
2023-02-11T16:07:03.047Z,99518.56
2023-02-11T16:09:35.861Z,99511.75
2023-02-11T16:12:07.359Z,99520.41
2023-02-11T16:14:39.034Z,99514.88
2023-02-11T16:17:09.979Z,99518.28
2023-02-11T16:19:43.596Z,99524.38
2023-02-11T16:22:17.621Z,99529.91
2023-02-11T16:24:48.479Z,99530.03
2023-02-11T16:27:23.505Z,99536.09
2023-02-11T16:29:52.618Z,99538.59
2023-02-11T16:32:22.249Z,99530.25
2023-02-11T16:34:49.980Z,99542.19
2023-02-11T16:37:18.953Z,99546.72
2023-02-11T16:39:46.295Z,99554.19
2023-02-11T16:42:14.214Z,99551.63
2023-02-11T16:44:41.716Z,99545.41
2023-02-11T16:47:18.186Z,99546.72
2023-02-11T16:49:45.685Z,99559.50
2023-02-11T16:52:16.296Z,99551.25
2023-02-11T16:54:45.422Z,99552.34
2023-02-11T16:57:15.368Z,99556.03
2023-02-11T16:59:43.215Z,99564.88
2023-02-11T17:02:16.784Z,99563.28
2023-02-11T17:04:44.998Z,99562.97
2023-02-11T17:07:12.543Z,99558.59
2023-02-11T17:09:40.403Z,99565.94
2023-02-11T17:12:09.284Z,99567.19
2023-02-11T17:14:36.761Z,99570.47
2023-02-11T17:17:04.222Z,99567.09
2023-02-11T17:19:34.385Z,99571.16
2023-02-11T17:22:01.886Z,99568.28
2023-02-11T17:24:29.374Z,99574.34
2023-02-11T17:26:56.831Z,99576.28
2023-02-11T17:29:27.061Z,99567.56
2023-02-11T17:31:54.729Z,99576.47
2023-02-11T17:34:23.025Z,99576.91
2023-02-11T17:36:51.677Z,99575.63
2023-02-11T17:39:20.943Z,99584.47
2023-02-11T17:41:48.486Z,99576.50
2023-02-11T17:44:16.248Z,99570.59
2023-02-11T17:46:45.232Z,99575.13
2023-02-11T17:49:12.909Z,99581.31
2023-02-11T17:51:40.752Z,99584.47
2023-02-11T17:54:12.336Z,99585.34
2023-02-11T17:56:40.669Z,99581.22
2023-02-11T17:59:09.401Z,99585.13
2023-02-11T18:01:38.039Z,99582.88
2023-02-11T18:04:09.306Z,99587.03
2023-02-11T18:06:36.851Z,99590.78
2023-02-11T18:09:04.796Z,99584.53
2023-02-11T18:11:34.063Z,99584.53
2023-02-11T18:14:02.354Z,99592.16
2023-02-11T18:16:30.349Z,99585.88
2023-02-11T18:18:59.023Z,99580.56
2023-02-11T18:21:27.873Z,99576.88
2023-02-11T18:23:56.838Z,99583.91
2023-02-11T18:26:25.705Z,99580.94
2023-02-11T18:28:53.494Z,99584.03
2023-02-11T18:31:21.859Z,99596.25
2023-02-11T18:33:49.543Z,99590.19
2023-02-11T18:36:17.662Z,99596.88
2023-02-11T18:38:46.630Z,99601.03
2023-02-11T18:41:14.889Z,99599.22
2023-02-11T18:43:42.982Z,99599.69
2023-02-11T18:46:13.049Z,99594.78
2023-02-11T18:48:40.979Z,99600.19
2023-02-11T18:51:13.034Z,99610.72
2023-02-11T18:53:40.562Z,99606.34
2023-02-11T18:56:11.002Z,99608.06
2023-02-11T18:58:38.927Z,99609.63
2023-02-11T19:01:12.431Z,99604.88
2023-02-11T19:03:39.965Z,99603.50
2023-02-11T19:06:08.363Z,99606.66
2023-02-11T19:08:35.812Z,99601.34
2023-02-11T19:11:05.512Z,99607.50
2023-02-11T19:13:34.591Z,99616.09
2023-02-11T19:16:05.647Z,99624.19
2023-02-11T19:18:33.190Z,99618.25
2023-02-11T19:21:00.637Z,99629.69
2023-02-11T19:23:30.403Z,99633.19
2023-02-11T19:25:57.872Z,99624.72
2023-02-11T19:28:25.344Z,99616.97
2023-02-11T19:30:54.296Z,99617.09
2023-02-11T19:33:21.845Z,99610.81
2023-02-11T19:35:49.804Z,99619.63
2023-02-11T19:38:18.061Z,99616.97
2023-02-11T19:40:45.510Z,99620.47
2023-02-11T19:43:12.958Z,99632.88
2023-02-11T19:45:40.432Z,99637.88
2023-02-11T19:48:12.394Z,99632.88
2023-02-11T19:50:39.855Z,99640.75
2023-02-11T19:53:07.370Z,99635.22
2023-02-11T19:55:35.952Z,99642.22
2023-02-11T19:58:03.402Z,99637.88
2023-02-11T20:00:30.883Z,99643.31
2023-02-11T20:02:58.521Z,99652.06
2023-02-11T20:05:27.421Z,99651.34
2023-02-11T20:07:54.880Z,99662.38
2023-02-11T20:10:23.991Z,99656.13
2023-02-11T20:12:51.621Z,99661.53
2023-02-11T20:15:19.291Z,99662.69
2023-02-11T20:17:46.762Z,99661.75
2023-02-11T20:20:14.373Z,99653.69
2023-02-11T20:22:43.170Z,99659.00
2023-02-11T20:25:11.647Z,99660.47
2023-02-11T20:27:39.150Z,99659.72
2023-02-11T20:30:07.919Z,99654.31
2023-02-11T20:32:38.041Z,99651.75
2023-02-11T20:35:07.114Z,99647.22
2023-02-11T20:37:34.710Z,99647.94
2023-02-11T20:40:03.585Z,99648.47
2023-02-11T20:42:31.040Z,99651.75
2023-02-11T20:44:58.533Z,99654.19
2023-02-11T20:47:25.973Z,99662.78
2023-02-11T20:49:55.246Z,99657.47
2023-02-11T20:52:23.021Z,99656.84
2023-02-11T20:54:50.699Z,99662.38
2023-02-11T20:57:19.514Z,99667.59
2023-02-11T20:59:46.959Z,99669.16
2023-02-11T21:02:14.584Z,99674.06
2023-02-11T21:04:42.192Z,99676.81
2023-02-11T21:07:09.678Z,99666.41
2023-02-11T21:09:38.069Z,99663.88
2023-02-11T21:12:06.336Z,99677.44
2023-02-11T21:14:35.172Z,99674.78
2023-02-11T21:17:02.643Z,99692.72
2023-02-11T21:19:30.225Z,99695.16
2023-02-11T21:22:00.434Z,99702.41
2023-02-11T21:24:28.274Z,99705.47
2023-02-11T21:26:55.764Z,99700.69
2023-02-11T21:29:23.409Z,99693.59
2023-02-11T21:31:52.519Z,99698.91
2023-02-11T21:34:20.646Z,99692.81
2023-02-11T21:36:51.150Z,99700.59
2023-02-11T21:39:19.120Z,99690.84
2023-02-11T21:41:46.941Z,99697.94
2023-02-11T21:44:14.391Z,99701.31
2023-02-11T21:46:41.912Z,99697.72
2023-02-11T21:49:11.268Z,99695.28
2023-02-11T21:51:38.832Z,99696.16
2023-02-11T21:54:06.849Z,99688.06
2023-02-11T21:56:35.358Z,99696.34
2023-02-11T21:59:03.046Z,99694.53
2023-02-11T22:01:32.810Z,99699.84
2023-02-11T22:04:00.848Z,99695.94
2023-02-11T22:06:32.473Z,99696.34
2023-02-11T22:09:02.935Z,99704.19
2023-02-11T22:11:30.936Z,99699.75
2023-02-11T22:13:59.032Z,99701.44
2023-02-11T22:16:27.927Z,99709.91
2023-02-11T22:18:58.381Z,99708.56
2023-02-11T22:21:27.798Z,99701.53
2023-02-11T22:23:56.839Z,99694.44
2023-02-11T22:26:27.470Z,99699.84
2023-02-11T22:28:55.762Z,99700.59
2023-02-11T22:31:25.256Z,99698.03
2023-02-11T22:33:53.079Z,99706.53
2023-02-11T22:36:22.355Z,99703.13
2023-02-11T22:38:50.331Z,99712.06
2023-02-11T22:41:20.126Z,99711.84
2023-02-11T22:43:47.703Z,99715.44
2023-02-11T22:46:17.692Z,99716.72
2023-02-11T22:48:45.539Z,99720.97
2023-02-11T22:51:15.409Z,99718.09
2023-02-11T22:53:44.352Z,99714.72
2023-02-11T22:56:15.622Z,99713.75
2023-02-11T22:58:45.106Z,99715.03
2023-02-11T23:01:13.593Z,99725.44
2023-02-11T23:03:41.605Z,99734.13
2023-02-11T23:06:10.017Z,99725.13
2023-02-11T23:08:39.412Z,99734.88
2023-02-11T23:11:08.459Z,99729.03
2023-02-11T23:13:36.682Z,99727.13
2023-02-11T23:16:07.208Z,99724.56
2023-02-11T23:18:34.922Z,99729.88
2023-02-11T23:21:06.905Z,99727.31
2023-02-11T23:23:34.837Z,99729.25
2023-02-11T23:26:03.360Z,99734.78
2023-02-11T23:28:30.898Z,99727.66
2023-02-11T23:30:58.541Z,99735.19
2023-02-11T23:33:27.477Z,99720.13
2023-02-11T23:35:55.203Z,99728.81
2023-02-11T23:38:22.822Z,99726.81
2023-02-11T23:40:50.282Z,99729.16
2023-02-11T23:43:17.734Z,99722.69
2023-02-11T23:45:45.184Z,99719.19
2023-02-11T23:48:12.704Z,99724.34
2023-02-11T23:50:43.855Z,99725.44
2023-02-11T23:53:11.810Z,99728.19
2023-02-11T23:55:41.039Z,99730.81
2023-02-11T23:58:09.074Z,99738.59
